CLT TRACON Summary / KCLT TAF
CLT TRACON Summary:
Expect VFR conditions under mostly clear skies overnight. Surface winds will be mostly southwest to south at 3-7kts and occasionally calm. Flight hazards in the TRACON airspace: None expected.

Updated:5/24/2016 7:35 PM
CLT Terminal Aerodrome Forecast:

FTUS31 KCLT 242321
KCLT 242320Z 2500/2524 22004KT P6SM SKC
     FM250600 18003KT P6SM FEW060
     FM251500 23006KT P6SM SCT050
     FM251900 22007KT P6SM BKN060
CLT TRACON Area Remark:
NONE.
Convective Gate Forecast / Icing Gate Forecast / Vertical Wind Profile (click on image to enlarge)
Convective Gate Forecast
Icing Gate Forecast
SIGMETS/ Southeast Radar & Satellite Loops (click on image to enlarge)

Southeast Radar Loop

 



USA.gov is the U.S. government's official web portal to all federal, state and local government web resources and services.